Time;durP1;ratioP1;P1;durP2;ratioP2;P2;SDS_P1;SDS_P2;PMS_P1;PMS_P2;Temp;Humidity;BMP_temperature;BMP_pressure;BME280_temperature;BME280_humidity;BME280_pressure;Samples;Min_cycle;Max_cycle;Signal;HPM_P1;HPM_P2
2023/08/16 00:02:07;;;;;;;3.90;3.20;;;15.30;99.90;;;;;;5061930;28;20381;-80
2023/08/16 00:04:33;;;;;;;3.40;3.17;;;15.30;99.90;;;;;;5055985;28;20060;-79
2023/08/16 00:06:59;;;;;;;3.45;3.15;;;15.20;99.90;;;;;;5065461;28;20044;-81
2023/08/16 00:09:25;;;;;;;5.65;3.30;;;15.10;99.90;;;;;;5064821;28;20048;-79
2023/08/16 00:11:51;;;;;;;3.08;2.80;;;15.10;99.90;;;;;;5068127;28;20040;-80
2023/08/16 00:14:17;;;;;;;5.85;3.33;;;15.10;99.90;;;;;;5062099;28;20044;-80
2023/08/16 00:16:43;;;;;;;6.75;4.05;;;15.10;99.90;;;;;;5045689;28;20043;-81
2023/08/16 00:19:09;;;;;;;4.15;3.60;;;15.00;99.90;;;;;;5059822;28;20044;-79
2023/08/16 00:21:35;;;;;;;5.75;3.40;;;15.00;99.90;;;;;;5067144;28;20108;-79
2023/08/16 00:24:04;;;;;;;8.80;4.00;;;16.10;99.90;;;;;;5068983;28;20135;-80
2023/08/16 00:26:30;;;;;;;5.10;3.75;;;14.90;99.90;;;;;;5067954;28;20037;-81
2023/08/16 00:28:56;;;;;;;5.03;3.97;;;14.90;99.90;;;;;;5070453;28;20043;-81
2023/08/16 00:31:22;;;;;;;4.80;3.63;;;14.90;99.90;;;;;;5062308;28;20036;-79
2023/08/16 00:33:48;;;;;;;6.07;3.88;;;14.80;99.90;;;;;;5063465;28;20074;-79
2023/08/16 00:36:13;;;;;;;6.05;3.97;;;14.80;99.90;;;;;;5068706;28;20037;-80
2023/08/16 00:38:42;;;;;;;9.43;3.83;;;15.00;99.90;;;;;;5066775;28;20083;-80
2023/08/16 00:41:11;;;;;;;4.00;3.60;;;14.80;99.90;;;;;;5059880;28;20115;-79
2023/08/16 00:43:38;;;;;;;5.68;3.53;;;15.70;99.90;;;;;;5058558;28;20507;-80
2023/08/16 00:46:06;;;;;;;6.38;3.65;;;14.70;99.90;;;;;;5062824;28;20040;-80
2023/08/16 00:48:34;;;;;;;3.53;3.22;;;14.70;99.90;;;;;;5056518;28;20033;-81
2023/08/16 00:51:01;;;;;;;3.72;3.40;;;14.70;99.90;;;;;;5059672;28;20040;-80
2023/08/16 00:53:30;;;;;;;7.68;3.63;;;14.70;99.90;;;;;;5064988;28;20107;-81
2023/08/16 00:55:57;;;;;;;5.82;3.50;;;14.70;99.90;;;;;;5071605;28;20286;-79
2023/08/16 00:58:22;;;;;;;3.88;3.55;;;14.60;99.90;;;;;;5068249;28;20029;-80
2023/08/16 01:00:48;;;;;;;9.13;3.90;;;14.60;99.90;;;;;;5067644;28;20171;-78
2023/08/16 01:03:14;;;;;;;4.20;3.80;;;14.60;99.90;;;;;;5069007;28;20499;-79
2023/08/16 01:05:40;;;;;;;5.38;4.15;;;14.60;99.90;;;;;;5068870;28;20044;-79
2023/08/16 01:08:06;;;;;;;5.38;3.08;;;14.70;99.90;;;;;;5060411;28;20123;-79
2023/08/16 01:11:07;;;;;;;5.15;3.50;;;15.60;99.90;;;;;;5068049;28;20043;-79
2023/08/16 01:13:45;;;;;;;5.97;3.53;;;14.70;99.90;;;;;;5078096;28;20388;-79
2023/08/16 01:16:11;;;;;;;4.70;3.90;;;14.70;99.90;;;;;;5072146;28;20861;-80
2023/08/16 01:18:40;;;;;;;6.22;3.60;;;14.70;99.90;;;;;;5067267;28;20040;-79
2023/08/16 01:21:08;;;;;;;8.10;4.05;;;14.60;99.90;;;;;;5057355;28;20131;-79
2023/08/16 01:23:46;;;;;;;3.83;3.33;;;14.70;99.90;;;;;;5063027;28;20045;-80
2023/08/16 01:26:34;;;;;;;6.60;4.30;;;14.70;99.90;;;;;;5065073;28;20280;-78
2023/08/16 01:29:01;;;;;;;6.88;4.30;;;14.70;99.90;;;;;;5059137;28;20037;-80
2023/08/16 01:31:27;;;;;;;6.45;4.32;;;14.70;99.90;;;;;;5061184;28;20746;-79
2023/08/16 01:33:53;;;;;;;5.80;4.30;;;14.80;99.90;;;;;;5062876;28;20034;-79
2023/08/16 01:36:19;;;;;;;5.22;4.38;;;14.80;99.90;;;;;;5062901;28;20380;-78
2023/08/16 01:38:45;;;;;;;5.07;4.60;;;14.80;99.90;;;;;;5057450;28;20049;-79
2023/08/16 01:41:24;;;;;;;7.95;4.32;;;14.80;99.90;;;;;;5057474;28;20041;-79
2023/08/16 01:43:51;;;;;;;6.25;4.22;;;14.70;99.90;;;;;;5054807;28;20443;-79
2023/08/16 01:46:19;;;;;;;5.40;4.72;;;14.70;99.90;;;;;;5064748;28;20067;-78
2023/08/16 01:48:46;;;;;;;6.05;4.53;;;14.70;99.90;;;;;;5061518;28;20041;-78
2023/08/16 01:51:12;;;;;;;6.30;5.15;;;14.70;99.90;;;;;;5067579;28;20119;-79
2023/08/16 01:53:38;;;;;;;9.18;5.00;;;14.60;99.90;;;;;;5063588;28;20120;-79
2023/08/16 01:56:04;;;;;;;5.60;4.82;;;14.60;99.90;;;;;;5063386;28;20102;-79
2023/08/16 01:58:30;;;;;;;9.70;4.43;;;14.50;99.90;;;;;;5065268;28;20041;-79
2023/08/16 02:00:56;;;;;;;5.13;4.00;;;14.40;99.90;;;;;;5062752;28;20040;-79
2023/08/16 02:03:21;;;;;;;6.97;4.78;;;14.40;99.90;;;;;;5069820;28;20041;-78
2023/08/16 02:05:47;;;;;;;7.05;5.07;;;14.40;99.90;;;;;;5071260;28;20041;-79
2023/08/16 02:08:12;;;;;;;8.23;4.93;;;14.40;99.90;;;;;;5071517;28;20072;-78
2023/08/16 02:10:39;;;;;;;7.00;4.28;;;14.40;99.90;;;;;;5071008;28;20511;-78
2023/08/16 02:13:05;;;;;;;6.47;5.15;;;14.90;99.90;;;;;;5063817;28;20041;-78
2023/08/16 02:15:30;;;;;;;6.13;5.25;;;14.40;99.90;;;;;;5063634;28;20067;-78
2023/08/16 02:17:56;;;;;;;5.75;5.25;;;14.40;99.90;;;;;;5071768;28;20029;-78
2023/08/16 02:20:22;;;;;;;5.47;4.97;;;14.30;99.90;;;;;;5071787;28;20419;-79
2023/08/16 02:22:47;;;;;;;8.00;5.38;;;14.40;99.90;;;;;;5070867;28;20039;-78
2023/08/16 02:25:13;;;;;;;7.13;5.28;;;15.10;99.90;;;;;;5071097;28;20051;-80
2023/08/16 02:27:40;;;;;;;7.00;4.88;;;14.40;99.90;;;;;;5078415;28;20060;-78
2023/08/16 02:30:06;;;;;;;5.57;4.57;;;14.50;99.90;;;;;;5062657;28;20275;-79
2023/08/16 02:32:33;;;;;;;5.57;4.30;;;14.40;99.90;;;;;;5068756;28;20032;-78
2023/08/16 02:34:59;;;;;;;4.75;4.35;;;14.30;99.90;;;;;;5073946;28;20055;-79
2023/08/16 02:37:25;;;;;;;5.72;4.78;;;14.20;99.90;;;;;;5066260;28;20783;-79
2023/08/16 02:39:51;;;;;;;5.65;4.70;;;14.20;99.90;;;;;;5061891;28;20048;-80
2023/08/16 02:42:17;;;;;;;5.53;5.00;;;14.20;99.90;;;;;;5067568;28;20492;-80
2023/08/16 02:44:43;;;;;;;5.38;4.60;;;14.10;99.90;;;;;;5061994;28;20048;-79
2023/08/16 02:47:09;;;;;;;10.18;4.32;;;14.10;99.90;;;;;;5067090;28;20060;-78
2023/08/16 02:49:34;;;;;;;4.05;3.50;;;14.10;99.90;;;;;;5058450;28;20040;-80
2023/08/16 02:52:00;;;;;;;3.58;3.28;;;15.30;99.90;;;;;;5065820;28;20082;-79
2023/08/16 02:54:25;;;;;;;4.15;2.80;;;14.10;99.90;;;;;;5069504;28;20043;-79
2023/08/16 02:56:51;;;;;;;4.70;3.38;;;14.10;99.90;;;;;;5055910;28;20051;-78
2023/08/16 02:59:17;;;;;;;4.15;2.70;;;14.10;99.90;;;;;;5061346;28;20039;-79
2023/08/16 03:01:42;;;;;;;3.13;2.83;;;14.10;99.90;;;;;;5069913;28;20470;-79
2023/08/16 03:04:09;;;;;;;3.28;2.85;;;14.00;99.90;;;;;;5056934;28;20040;-80
2023/08/16 03:06:35;;;;;;;3.08;2.88;;;13.90;99.90;;;;;;5061742;28;20552;-78
2023/08/16 03:09:00;;;;;;;5.57;3.83;;;13.90;99.90;;;;;;5060843;28;20121;-79
2023/08/16 03:11:26;;;;;;;3.00;2.70;;;13.90;99.90;;;;;;5060317;28;20048;-80
2023/08/16 03:13:51;;;;;;;3.75;3.08;;;13.80;99.90;;;;;;5056745;28;20484;-78
2023/08/16 03:16:17;;;;;;;3.42;3.13;;;13.80;99.90;;;;;;5060425;28;20393;-80
2023/08/16 03:18:43;;;;;;;3.15;2.78;;;13.80;99.90;;;;;;5069200;28;20032;-78
2023/08/16 03:21:08;;;;;;;3.53;3.13;;;13.70;99.90;;;;;;5067040;28;20040;-78
2023/08/16 03:23:34;;;;;;;3.88;2.95;;;13.70;99.90;;;;;;5067857;28;20123;-77
2023/08/16 03:26:00;;;;;;;3.67;3.08;;;14.60;99.90;;;;;;5053314;28;20098;-79
2023/08/16 03:28:25;;;;;;;5.93;3.25;;;13.80;99.90;;;;;;5063687;28;20045;-79
2023/08/16 03:30:51;;;;;;;5.68;2.63;;;13.80;99.90;;;;;;5064089;28;20049;-79
2023/08/16 03:33:16;;;;;;;3.90;3.13;;;13.80;99.90;;;;;;5062557;28;20044;-78
2023/08/16 03:35:42;;;;;;;4.05;2.80;;;13.80;99.90;;;;;;5063553;28;20142;-78
2023/08/16 03:38:08;;;;;;;3.22;2.75;;;13.80;99.90;;;;;;5065365;28;20041;-77
2023/08/16 03:40:34;;;;;;;3.72;3.40;;;13.80;99.90;;;;;;5060032;28;20423;-78
2023/08/16 03:43:00;;;;;;;4.35;2.60;;;13.70;99.90;;;;;;5069199;28;20071;-78
2023/08/16 03:45:26;;;;;;;3.75;2.90;;;13.70;99.90;;;;;;5058071;28;20492;-79
2023/08/16 03:47:56;;;;;;;3.38;3.08;;;13.70;99.90;;;;;;5065241;28;20044;-79
2023/08/16 03:50:22;;;;;;;3.33;2.95;;;13.60;99.90;;;;;;5057951;28;20053;-80
2023/08/16 03:52:47;;;;;;;3.25;2.95;;;13.60;99.90;;;;;;5067984;28;20043;-79
2023/08/16 03:55:13;;;;;;;3.33;3.03;;;13.60;99.90;;;;;;5058784;28;20531;-78
2023/08/16 03:57:39;;;;;;;4.05;3.05;;;13.50;99.90;;;;;;5068283;28;20074;-78
2023/08/16 04:00:09;;;;;;;3.08;2.70;;;13.50;99.90;;;;;;5077483;28;20060;-79
2023/08/16 04:02:35;;;;;;;2.25;2.08;;;13.60;99.90;;;;;;5061472;28;20041;-79
2023/08/16 04:05:09;;;;;;;3.47;2.70;;;13.50;99.90;;;;;;5062008;28;20455;-80
2023/08/16 04:07:35;;;;;;;3.90;2.65;;;13.50;99.90;;;;;;5060159;28;20044;-80
2023/08/16 04:10:00;;;;;;;5.53;3.30;;;13.50;99.90;;;;;;5069152;28;20118;-79
2023/08/16 04:12:26;;;;;;;3.42;3.13;;;13.50;99.90;;;;;;5065713;28;20049;-79
2023/08/16 04:14:51;;;;;;;4.50;3.08;;;13.50;99.90;;;;;;5062205;28;20076;-80
2023/08/16 04:17:17;;;;;;;2.80;2.50;;;13.50;99.90;;;;;;5069536;28;20476;-79
2023/08/16 04:19:43;;;;;;;4.07;2.78;;;13.50;99.90;;;;;;5069727;28;20040;-79
2023/08/16 04:22:09;;;;;;;2.88;2.67;;;12.80;99.90;;;;;;5060749;28;20064;-80
2023/08/16 04:24:34;;;;;;;1.98;1.88;;;13.50;99.90;;;;;;5067251;28;20088;-80
2023/08/16 04:27:00;;;;;;;2.83;2.33;;;13.60;99.90;;;;;;5068859;28;20045;-79
2023/08/16 04:29:26;;;;;;;4.05;2.63;;;13.40;99.90;;;;;;5066937;28;20075;-79
2023/08/16 04:31:51;;;;;;;5.10;2.85;;;14.60;99.90;;;;;;5062750;28;20067;-78
2023/08/16 04:34:17;;;;;;;2.88;2.67;;;13.40;99.90;;;;;;5070344;28;20045;-78
2023/08/16 04:36:42;;;;;;;5.13;2.65;;;13.30;99.90;;;;;;5067792;28;20080;-78
2023/08/16 04:39:08;;;;;;;3.30;2.47;;;14.70;99.90;;;;;;5057762;28;20135;-78
2023/08/16 04:41:34;;;;;;;5.45;2.53;;;13.30;99.90;;;;;;5066856;28;20040;-81
2023/08/16 04:43:59;;;;;;;2.97;2.78;;;13.90;99.90;;;;;;5066222;28;20177;-78
2023/08/16 04:46:26;;;;;;;2.70;2.50;;;14.10;99.90;;;;;;5058518;28;20053;-78
2023/08/16 04:48:53;;;;;;;2.40;2.15;;;14.40;99.90;;;;;;5058476;28;20043;-80
2023/08/16 04:51:19;;;;;;;2.30;2.10;;;13.40;99.90;;;;;;5058269;28;20060;-79
2023/08/16 04:53:45;;;;;;;2.70;2.50;;;13.50;99.90;;;;;;5058877;28;20032;-80
2023/08/16 04:56:11;;;;;;;3.45;2.40;;;13.50;99.90;;;;;;5054794;28;20055;-80
2023/08/16 04:58:36;;;;;;;3.15;2.70;;;13.40;99.90;;;;;;5065105;28;20041;-80
2023/08/16 05:01:02;;;;;;;2.25;2.08;;;13.40;99.90;;;;;;5065974;28;20281;-78
2023/08/16 05:03:30;;;;;;;2.70;2.47;;;14.50;99.90;;;;;;5058067;28;20093;-79
2023/08/16 05:06:01;;;;;;;3.03;2.55;;;13.50;99.90;;;;;;5057729;28;20047;-81
2023/08/16 05:08:27;;;;;;;2.70;2.50;;;14.20;99.90;;;;;;5067185;28;20111;-80
2023/08/16 05:10:53;;;;;;;2.75;2.50;;;13.60;99.90;;;;;;5069587;28;20553;-81
2023/08/16 05:13:19;;;;;;;3.22;2.60;;;13.60;99.90;;;;;;5067545;28;20071;-81
2023/08/16 05:15:45;;;;;;;2.40;2.30;;;13.60;99.90;;;;;;5054586;28;20036;-80
2023/08/16 05:18:11;;;;;;;9.18;6.30;;;13.60;99.90;;;;;;5055043;28;20037;-80
2023/08/16 05:20:38;;;;;;;6.13;3.03;;;14.20;99.90;;;;;;5060289;28;20033;-80
2023/08/16 05:23:03;;;;;;;3.17;2.87;;;13.60;99.90;;;;;;5025181;28;1111340;-80
2023/08/16 05:25:29;;;;;;;3.17;2.90;;;13.70;99.90;;;;;;5087251;28;20649;-80
2023/08/16 05:27:58;;;;;;;4.53;2.55;;;13.70;99.90;;;;;;5068381;28;20134;-79
2023/08/16 05:30:25;;;;;;;2.58;2.47;;;13.70;99.90;;;;;;5062936;28;20056;-81
2023/08/16 05:32:52;;;;;;;3.45;2.97;;;13.90;99.90;;;;;;5063841;28;20115;-81
2023/08/16 05:35:18;;;;;;;5.97;3.00;;;13.80;99.90;;;;;;5064009;28;20324;-80
2023/08/16 05:37:44;;;;;;;2.67;2.53;;;13.90;99.90;;;;;;5063178;28;20451;-81
2023/08/16 05:40:10;;;;;;;3.05;2.72;;;13.80;99.90;;;;;;5064433;28;20047;-81
2023/08/16 05:42:36;;;;;;;3.10;2.88;;;13.90;99.90;;;;;;5074309;28;20606;-79
2023/08/16 05:45:01;;;;;;;5.40;3.28;;;14.80;99.90;;;;;;5076701;28;20040;-79
2023/08/16 05:47:27;;;;;;;5.63;3.00;;;14.00;99.90;;;;;;5063401;28;20032;-79
2023/08/16 05:49:54;;;;;;;3.83;3.55;;;14.00;99.90;;;;;;5074434;28;20040;-78
2023/08/16 05:52:19;;;;;;;3.00;2.72;;;14.10;99.90;;;;;;5072017;28;20033;-79
2023/08/16 05:54:45;;;;;;;3.75;3.45;;;14.10;99.90;;;;;;5065800;28;20506;-80
2023/08/16 05:57:11;;;;;;;3.80;3.08;;;14.10;99.90;;;;;;5063746;28;20041;-81
2023/08/16 05:59:36;;;;;;;3.92;3.63;;;14.20;99.90;;;;;;5065320;28;20151;-79
2023/08/16 06:02:02;;;;;;;2.97;2.63;;;14.20;99.90;;;;;;5067024;28;20058;-80
2023/08/16 06:04:28;;;;;;;3.92;3.28;;;14.30;99.90;;;;;;5073041;28;20044;-80
2023/08/16 06:06:54;;;;;;;3.22;2.78;;;15.00;99.90;;;;;;5063071;28;20041;-81
2023/08/16 06:09:19;;;;;;;4.25;3.33;;;14.30;99.90;;;;;;5072348;28;20040;-81
2023/08/16 06:11:45;;;;;;;3.50;3.03;;;14.40;99.90;;;;;;5066801;28;20051;-79
2023/08/16 06:14:11;;;;;;;4.15;3.70;;;14.40;99.90;;;;;;5065583;28;20068;-80
2023/08/16 06:16:36;;;;;;;5.72;4.00;;;14.50;99.90;;;;;;5076394;28;20084;-81
2023/08/16 06:19:02;;;;;;;4.95;4.10;;;15.30;99.90;;;;;;5078828;28;20029;-81
2023/08/16 06:21:28;;;;;;;6.13;4.35;;;14.60;99.90;;;;;;5122243;22;20063;-80
2023/08/16 06:23:56;;;;;;;7.47;4.40;;;15.40;99.90;;;;;;5067464;28;20045;-79
2023/08/16 06:26:22;;;;;;;5.20;4.45;;;14.80;99.90;;;;;;5068386;28;20044;-79
2023/08/16 06:28:48;;;;;;;4.55;4.13;;;15.30;99.90;;;;;;5064678;28;20044;-79
2023/08/16 06:31:15;;;;;;;6.70;4.13;;;14.90;99.90;;;;;;5065404;28;20488;-80
2023/08/16 06:33:41;;;;;;;5.05;4.43;;;14.90;99.90;;;;;;5070505;28;20412;-79
2023/08/16 06:36:06;;;;;;;5.75;4.22;;;15.00;99.90;;;;;;5071633;28;20051;-78
2023/08/16 06:38:32;;;;;;;4.95;4.13;;;15.00;99.90;;;;;;5070874;28;20046;-79
2023/08/16 06:40:58;;;;;;;11.55;5.85;;;15.10;99.90;;;;;;5070373;28;20105;-79
2023/08/16 06:43:24;;;;;;;7.28;4.50;;;15.20;99.90;;;;;;5071487;28;20036;-79
2023/08/16 06:45:49;;;;;;;9.63;5.82;;;15.50;99.90;;;;;;5065928;28;20048;-79
2023/08/16 06:48:15;;;;;;;5.70;5.00;;;15.20;99.90;;;;;;5064647;28;20049;-78
2023/08/16 06:50:41;;;;;;;10.00;4.90;;;15.30;99.90;;;;;;5069455;28;20129;-80
2023/08/16 06:53:06;;;;;;;8.20;4.80;;;15.40;99.90;;;;;;5070968;28;20399;-80
2023/08/16 06:55:35;;;;;;;8.38;4.57;;;15.40;99.90;;;;;;5070753;28;20044;-80
2023/08/16 06:58:03;;;;;;;10.20;5.20;;;15.40;99.90;;;;;;5070478;28;20037;-79
2023/08/16 07:00:29;;;;;;;6.53;4.78;;;15.60;99.90;;;;;;5071266;28;20044;-80
2023/08/16 07:02:55;;;;;;;6.93;3.53;;;15.60;99.90;;;;;;5064927;28;20052;-79
2023/08/16 07:05:20;;;;;;;7.25;3.28;;;15.70;99.90;;;;;;5066123;28;20036;-78
2023/08/16 07:07:46;;;;;;;8.02;3.58;;;15.50;99.90;;;;;;5069501;28;20040;-78
2023/08/16 07:10:11;;;;;;;4.50;2.47;;;15.60;99.90;;;;;;5070319;28;20045;-79
2023/08/16 07:12:37;;;;;;;7.05;2.40;;;15.90;99.90;;;;;;5070877;28;20037;-79
2023/08/16 07:15:03;;;;;;;4.25;2.25;;;16.50;99.90;;;;;;5059781;28;20057;-79
2023/08/16 07:17:29;;;;;;;6.97;2.35;;;15.90;99.90;;;;;;5079810;28;20606;-82
2023/08/16 07:19:55;;;;;;;5.97;2.05;;;16.00;99.90;;;;;;5065589;28;20124;-80
2023/08/16 07:22:24;;;;;;;8.65;1.90;;;16.10;99.90;;;;;;5065835;28;20055;-81
2023/08/16 07:24:50;;;;;;;4.30;1.80;;;16.10;99.90;;;;;;5060306;28;20087;-80
2023/08/16 07:27:16;;;;;;;7.90;1.90;;;16.20;99.90;;;;;;5071020;28;20380;-80
2023/08/16 07:29:41;;;;;;;6.63;2.00;;;16.30;99.90;;;;;;5069145;28;20498;-80
2023/08/16 07:32:07;;;;;;;4.18;1.92;;;16.30;99.90;;;;;;5068916;28;20190;-81
2023/08/16 07:34:33;;;;;;;3.90;1.80;;;16.40;99.90;;;;;;5069802;28;20037;-81
2023/08/16 07:36:58;;;;;;;8.43;2.65;;;16.40;99.90;;;;;;5065343;28;20029;-81
2023/08/16 07:39:24;;;;;;;11.73;1.90;;;16.50;99.90;;;;;;5069984;28;20404;-80
2023/08/16 07:41:50;;;;;;;3.55;1.80;;;16.50;99.90;;;;;;5067960;28;20098;-80
2023/08/16 07:44:19;;;;;;;5.47;2.22;;;16.60;99.90;;;;;;5064786;28;20154;-81
2023/08/16 07:46:44;;;;;;;5.07;1.92;;;17.20;99.90;;;;;;5069034;28;20632;-82
2023/08/16 07:49:10;;;;;;;6.03;1.88;;;16.70;99.90;;;;;;5045235;28;20059;-80
2023/08/16 07:51:35;;;;;;;4.63;1.80;;;16.80;99.90;;;;;;5060636;28;20072;-81
2023/08/16 07:54:02;;;;;;;4.70;2.15;;;16.80;99.90;;;;;;5061326;28;20041;-81
2023/08/16 07:56:28;;;;;;;4.95;2.08;;;16.90;99.90;;;;;;5068294;28;20060;-81
2023/08/16 07:58:53;;;;;;;7.03;2.10;;;16.90;99.90;;;;;;5079357;28;20117;-82
2023/08/16 08:01:19;;;;;;;5.68;1.88;;;16.90;99.90;;;;;;5075144;28;20044;-81
2023/08/16 08:03:46;;;;;;;4.25;2.30;;;17.10;99.90;;;;;;5058656;28;20429;-81
2023/08/16 08:06:12;;;;;;;6.32;2.20;;;17.10;99.90;;;;;;5059229;28;20056;-82
2023/08/16 08:08:37;;;;;;;5.07;2.10;;;17.10;99.90;;;;;;5064872;28;20040;-83
2023/08/16 08:11:07;;;;;;;4.47;1.70;;;17.10;99.90;;;;;;5058088;28;20082;-83
2023/08/16 08:13:41;;;;;;;4.10;2.05;;;17.20;99.90;;;;;;5059663;28;20119;-83
2023/08/16 08:16:08;;;;;;;3.47;1.42;;;17.30;99.90;;;;;;5066326;28;20471;-83
2023/08/16 08:18:34;;;;;;;2.63;1.30;;;17.30;99.90;;;;;;5062152;28;20355;-83
2023/08/16 08:21:00;;;;;;;4.78;1.42;;;17.80;99.90;;;;;;5066173;28;20042;-82
2023/08/16 08:23:26;;;;;;;7.20;1.67;;;17.40;99.90;;;;;;5066535;28;20083;-83
2023/08/16 08:25:52;;;;;;;6.07;1.48;;;17.40;99.90;;;;;;5056068;28;20076;-83
2023/08/16 08:28:18;;;;;;;3.28;1.80;;;17.40;99.90;;;;;;5066256;28;20604;-83
2023/08/16 08:30:44;;;;;;;3.60;1.42;;;17.50;99.90;;;;;;5073268;28;20430;-83
2023/08/16 08:33:10;;;;;;;4.45;1.52;;;17.50;99.90;;;;;;5060158;28;20123;-82
2023/08/16 08:35:36;;;;;;;5.65;2.10;;;17.50;99.90;;;;;;5066799;28;20123;-83
2023/08/16 08:38:02;;;;;;;2.92;1.35;;;17.50;99.90;;;;;;5061332;28;20461;-83
2023/08/16 08:40:30;;;;;;;3.10;1.30;;;17.60;99.90;;;;;;5065596;28;20048;-82
2023/08/16 08:42:58;;;;;;;3.08;1.55;;;17.60;99.90;;;;;;5056056;28;20080;-81
2023/08/16 08:45:28;;;;;;;5.55;1.85;;;17.70;99.90;;;;;;5063818;28;20047;-79
2023/08/16 08:47:57;;;;;;;4.63;1.40;;;17.70;99.90;;;;;;5063743;28;20103;-80
2023/08/16 08:50:23;;;;;;;3.72;1.65;;;17.70;99.90;;;;;;5063000;28;20115;-81
2023/08/16 08:52:51;;;;;;;6.15;1.65;;;17.80;99.90;;;;;;5065584;28;20144;-81
2023/08/16 08:55:18;;;;;;;3.47;1.80;;;17.90;99.90;;;;;;5065934;28;20049;-80
2023/08/16 08:57:50;;;;;;;5.28;1.27;;;18.00;99.90;;;;;;5064000;28;20032;-81
2023/08/16 09:00:18;;;;;;;4.50;1.35;;;18.10;99.90;;;;;;5062842;28;20435;-82
2023/08/16 09:02:46;;;;;;;2.67;1.30;;;18.20;99.90;;;;;;5045333;28;20127;-81
2023/08/16 09:05:13;;;;;;;6.18;1.55;;;18.10;99.90;;;;;;5058234;28;20504;-80
2023/08/16 09:07:41;;;;;;;4.05;1.48;;;18.20;99.90;;;;;;5059518;28;20131;-81
2023/08/16 09:10:09;;;;;;;3.08;1.25;;;18.20;99.90;;;;;;5070911;28;20132;-81
2023/08/16 09:12:37;;;;;;;3.63;1.33;;;18.20;99.90;;;;;;5057405;28;20041;-81
2023/08/16 09:15:03;;;;;;;3.20;1.60;;;18.20;99.90;;;;;;5061809;28;20044;-81
2023/08/16 09:17:29;;;;;;;5.40;1.20;;;18.20;99.90;;;;;;5057694;28;20037;-80
2023/08/16 09:19:54;;;;;;;3.50;1.00;;;18.20;99.90;;;;;;5056878;28;20127;-80
2023/08/16 09:22:20;;;;;;;2.90;1.15;;;18.40;99.90;;;;;;5065309;28;20082;-81
2023/08/16 09:24:46;;;;;;;3.45;0.90;;;18.30;99.90;;;;;;5062079;28;20488;-80
2023/08/16 09:27:12;;;;;;;0.73;0.40;;;18.30;99.90;;;;;;5065266;28;20716;-80
2023/08/16 09:29:40;;;;;;;3.60;0.75;;;18.30;99.90;;;;;;5058452;28;20500;-79
2023/08/16 09:32:07;;;;;;;2.78;0.77;;;18.40;99.90;;;;;;5056855;28;20045;-80
2023/08/16 09:34:35;;;;;;;3.13;0.60;;;18.40;99.90;;;;;;5068390;28;20031;-80
2023/08/16 09:37:03;;;;;;;2.42;0.60;;;18.50;99.90;;;;;;5063541;28;20040;-79
2023/08/16 09:39:28;;;;;;;3.90;0.70;;;18.50;99.90;;;;;;5066229;28;20033;-80
2023/08/16 09:41:54;;;;;;;1.58;0.60;;;18.80;99.90;;;;;;5071312;28;20028;-80
2023/08/16 09:44:20;;;;;;;3.45;0.73;;;18.60;99.90;;;;;;5064603;28;20045;-81
2023/08/16 09:46:46;;;;;;;1.50;0.47;;;18.60;99.90;;;;;;5064287;28;20060;-77
2023/08/16 09:49:12;;;;;;;1.90;0.57;;;18.60;99.90;;;;;;5060814;28;20056;-78
2023/08/16 09:51:41;;;;;;;4.00;0.70;;;18.60;99.90;;;;;;5060785;28;20181;-79
2023/08/16 09:54:14;;;;;;;2.42;0.45;;;18.60;99.90;;;;;;5064483;28;20079;-78
2023/08/16 09:56:41;;;;;;;1.88;0.60;;;18.60;99.90;;;;;;5060822;28;20167;-80
2023/08/16 09:59:14;;;;;;;2.22;0.98;;;19.10;99.90;;;;;;5058859;28;20458;-81
2023/08/16 10:01:40;;;;;;;1.92;0.68;;;18.70;99.90;;;;;;5070792;28;20495;-82
2023/08/16 10:04:07;;;;;;;1.33;0.88;;;18.80;99.90;;;;;;5065549;28;20573;-82
2023/08/16 10:06:34;;;;;;;3.80;0.50;;;18.70;99.90;;;;;;5063913;28;20119;-82
2023/08/16 10:09:02;;;;;;;4.38;0.88;;;18.80;99.90;;;;;;5059745;28;20079;-81
2023/08/16 10:11:28;;;;;;;2.85;1.05;;;18.80;99.90;;;;;;5067563;28;20395;-82
2023/08/16 10:13:54;;;;;;;2.53;0.63;;;18.90;99.90;;;;;;5059052;28;20191;-81
2023/08/16 10:16:22;;;;;;;5.33;0.90;;;18.90;99.90;;;;;;4718625;28;10000662;-82
2023/08/16 10:18:51;;;;;;;1.83;0.90;;;19.00;99.90;;;;;;5057483;28;20053;-80
2023/08/16 10:21:18;;;;;;;2.75;0.80;;;19.10;99.90;;;;;;5061802;28;20416;-80
2023/08/16 10:23:44;;;;;;;2.40;0.80;;;19.20;99.90;;;;;;5063123;28;20381;-79
2023/08/16 10:26:13;;;;;;;2.67;0.70;;;19.20;99.90;;;;;;5058986;28;20040;-78
2023/08/16 10:28:44;;;;;;;3.15;0.82;;;19.20;99.90;;;;;;5066740;28;20041;-81
2023/08/16 10:31:11;;;;;;;5.35;0.65;;;19.30;99.90;;;;;;5051682;28;20531;-82
2023/08/16 10:33:44;;;;;;;4.50;0.88;;;19.30;99.90;;;;;;5061747;28;20432;-85
2023/08/16 10:36:10;;;;;;;1.95;0.70;;;19.40;99.90;;;;;;5063069;28;20056;-79
2023/08/16 10:38:37;;;;;;;3.83;0.88;;;19.50;99.90;;;;;;5060836;28;20119;-81
2023/08/16 10:41:10;;;;;;;2.15;0.40;;;19.50;99.90;;;;;;5056298;28;20079;-80
2023/08/16 10:43:36;;;;;;;1.08;0.50;;;19.60;99.90;;;;;;5068354;28;20484;-80
2023/08/16 10:46:02;;;;;;;3.67;0.60;;;19.70;99.90;;;;;;5064644;28;20056;-84
2023/08/16 10:48:37;;;;;;;1.50;0.63;;;19.80;99.90;;;;;;5067987;28;20400;-84
2023/08/16 10:51:04;;;;;;;4.45;0.90;;;19.90;99.90;;;;;;5062078;28;20060;-84
2023/08/16 10:53:31;;;;;;;2.28;0.68;;;20.10;99.90;;;;;;5068773;28;20045;-84
2023/08/16 10:55:56;;;;;;;2.55;0.60;;;20.20;99.90;;;;;;5065386;28;20045;-84
2023/08/16 10:58:23;;;;;;;2.80;0.57;;;20.30;99.90;;;;;;5061804;28;20043;-84
2023/08/16 11:00:59;;;;;;;1.85;0.50;;;20.30;99.90;;;;;;5062916;28;20123;-85
2023/08/16 11:03:33;;;;;;;3.47;0.82;;;20.50;99.90;;;;;;5064247;28;20051;-85
2023/08/16 11:06:00;;;;;;;;;;;20.50;99.90;;;;;;5058688;28;20039;-84
2023/08/16 11:08:29;;;;;;;3.58;0.73;;;20.70;99.90;;;;;;5064467;28;19963;-83
2023/08/16 11:10:55;;;;;;;2.90;0.98;;;20.80;99.90;;;;;;5060953;28;20040;-83
2023/08/16 11:13:20;;;;;;;3.15;1.00;;;20.80;99.90;;;;;;5066876;28;20048;-81
2023/08/16 11:15:47;;;;;;;2.05;0.77;;;20.90;99.90;;;;;;5060482;28;20391;-80
2023/08/16 11:18:13;;;;;;;2.63;0.88;;;20.80;99.90;;;;;;5070131;28;20045;-83
2023/08/16 11:20:41;;;;;;;3.50;0.60;;;20.90;99.90;;;;;;5073334;28;20040;-81
2023/08/16 11:23:07;;;;;;;3.00;0.70;;;21.00;99.90;;;;;;5041457;28;20037;-83
2023/08/16 11:25:33;;;;;;;2.65;0.47;;;21.10;99.90;;;;;;5065927;28;20459;-83
2023/08/16 11:28:00;;;;;;;0.70;0.57;;;21.40;99.90;;;;;;5069537;28;20044;-84
2023/08/16 11:30:26;;;;;;;2.30;0.77;;;21.50;99.90;;;;;;5061962;28;20036;-83
2023/08/16 11:32:52;;;;;;;2.45;0.80;;;21.70;99.90;;;;;;5068814;28;21213;-82
2023/08/16 11:35:17;;;;;;;1.98;0.68;;;21.70;99.90;;;;;;5066204;28;20178;-85
2023/08/16 11:37:43;;;;;;;3.53;0.80;;;21.80;99.90;;;;;;5066841;28;20037;-84
2023/08/16 11:40:09;;;;;;;2.80;0.47;;;21.90;99.90;;;;;;5060711;28;20045;-83
2023/08/16 11:42:35;;;;;;;1.70;0.43;;;22.00;99.90;;;;;;5064146;28;20040;-83
2023/08/16 11:45:03;;;;;;;2.25;0.52;;;21.90;99.90;;;;;;5066611;28;20063;-86
2023/08/16 11:47:29;;;;;;;1.15;0.40;;;21.90;99.90;;;;;;5064862;28;20041;-84
2023/08/16 11:49:55;;;;;;;2.42;0.55;;;21.80;99.90;;;;;;5066184;28;20075;-82
2023/08/16 11:52:25;;;;;;;2.10;0.70;;;21.70;99.90;;;;;;5058535;28;20072;-83
2023/08/16 11:55:05;;;;;;;1.25;0.40;;;21.80;99.90;;;;;;5062019;28;20144;-85
2023/08/16 11:57:47;;;;;;;1.50;0.40;;;21.70;99.90;;;;;;5067494;28;20036;-81
2023/08/16 12:00:15;;;;;;;2.10;0.40;;;21.70;99.90;;;;;;5067553;28;20324;-80
2023/08/16 12:02:43;;;;;;;3.03;0.47;;;21.60;99.90;;;;;;5069416;28;20140;-84
2023/08/16 12:05:10;;;;;;;2.90;0.70;;;21.50;99.90;;;;;;5057908;28;20048;-83
2023/08/16 12:07:52;;;;;;;1.65;0.65;;;21.40;99.90;;;;;;5068526;28;20112;-83
2023/08/16 12:10:23;;;;;;;1.40;0.50;;;21.40;99.90;;;;;;5069854;28;20454;-85
2023/08/16 12:12:52;;;;;;;2.15;0.52;;;21.50;99.90;;;;;;5070003;28;20044;-86
2023/08/16 12:15:18;;;;;;;4.25;1.40;;;21.70;99.90;;;;;;5061196;28;20075;-85
2023/08/16 12:17:44;;;;;;;3.10;1.20;;;21.90;99.90;;;;;;5071412;28;20029;-83
2023/08/16 12:20:10;;;;;;;0.82;0.40;;;22.00;99.90;;;;;;5068596;28;20045;-86
2023/08/16 12:22:36;;;;;;;2.10;0.75;;;22.00;99.90;;;;;;5071560;28;20051;-84
2023/08/16 12:25:01;;;;;;;1.45;0.32;;;21.90;99.90;;;;;;5065714;28;20048;-85
2023/08/16 12:27:28;;;;;;;3.35;0.50;;;21.80;99.90;;;;;;5061114;28;20110;-85
2023/08/16 12:29:53;;;;;;;2.65;0.55;;;21.70;99.90;;;;;;5067888;28;20036;-85
2023/08/16 12:32:19;;;;;;;4.03;0.75;;;21.70;99.90;;;;;;5062764;28;20041;-84
2023/08/16 12:34:44;;;;;;;1.33;0.63;;;21.50;99.90;;;;;;5063744;28;20514;-84
2023/08/16 12:37:12;;;;;;;7.78;5.93;;;21.40;99.90;;;;;;5060982;28;20050;-84
2023/08/16 12:39:39;;;;;;;7.03;3.08;;;21.30;99.90;;;;;;5072166;28;20039;-84
2023/08/16 12:42:05;;;;;;;4.93;1.88;;;21.70;99.90;;;;;;5072147;28;20414;-86
2023/08/16 12:44:31;;;;;;;2.38;1.45;;;21.90;99.90;;;;;;5066283;28;20041;-83
2023/08/16 12:46:56;;;;;;;2.50;1.02;;;21.90;99.90;;;;;;5062891;28;20094;-85